Time;durP1;ratioP1;P1;durP2;ratioP2;P2;SDS_P1;SDS_P2;PMS_P1;PMS_P2;Temp;Humidity;BMP_temperature;BMP_pressure;BME280_temperature;BME280_humidity;BME280_pressure;Samples;Min_cycle;Max_cycle;Signal;HPM_P1;HPM_P2
2023/04/27 02:43:38;;;;;;;32.40;14.30;;;;;;;3.40;71.30;99201.99;106968;1303;545984;-56
2023/04/27 02:46:03;;;;;;;36.70;15.50;;;;;;;3.36;72.04;99204.88;107351;1314;22255;-57
2023/04/27 02:48:30;;;;;;;33.20;15.30;;;;;;;3.38;71.72;99205.70;107365;1314;22510;-54
2023/04/27 02:50:56;;;;;;;34.20;14.20;;;;;;;3.36;71.43;99205.73;107365;1314;22344;-56
2023/04/27 02:53:21;;;;;;;43.50;14.60;;;;;;;3.34;71.48;99210.49;107381;1312;22283;-59
2023/04/27 02:55:47;;;;;;;33.30;14.10;;;;;;;3.34;71.58;99210.30;107396;1311;22224;-56
2023/04/27 02:58:13;;;;;;;35.20;13.50;;;;;;;3.34;71.58;99207.89;107517;1310;167627;-58
2023/04/27 03:00:40;;;;;;;25.10;12.80;;;;;;;3.33;71.71;99206.01;107656;1310;23162;-56
2023/04/27 03:03:06;;;;;;;26.90;12.90;;;;;;;3.33;71.64;99206.70;107661;1310;22923;-57
2023/04/27 03:05:31;;;;;;;28.80;13.50;;;;;;;3.37;71.45;99211.42;107659;1310;22307;-58
2023/04/27 03:07:57;;;;;;;31.30;13.00;;;;;;;3.40;71.41;99213.09;107648;1310;22217;-56
2023/04/27 03:10:22;;;;;;;28.50;13.00;;;;;;;3.40;71.28;99216.89;107673;1310;22440;-57
2023/04/27 03:12:47;;;;;;;31.30;12.80;;;;;;;3.41;71.42;99218.27;107665;1310;23232;-58
2023/04/27 03:15:12;;;;;;;30.90;12.00;;;;;;;3.44;71.14;99220.08;107669;1310;22293;-57
2023/04/27 03:17:38;;;;;;;26.80;12.90;;;;;;;3.45;70.97;99221.42;107687;1310;22228;-58
2023/04/27 03:20:08;;;;;;;28.80;12.80;;;;;;;3.45;70.90;99222.46;107675;1310;22269;-57
2023/04/27 03:22:33;;;;;;;28.80;12.50;;;;;;;3.45;71.18;99226.30;107655;1310;22241;-55
2023/04/27 03:24:58;;;;;;;27.10;12.30;;;;;;;3.49;70.54;99223.93;107679;1310;22975;-57
2023/04/27 03:27:24;;;;;;;30.50;12.80;;;;;;;3.46;71.06;99225.05;107665;1310;22520;-58
2023/04/27 03:29:55;;;;;;;30.00;12.30;;;;;;;3.41;71.28;99227.10;107649;1310;22394;-56
2023/04/27 03:32:20;;;;;;;25.40;11.70;;;;;;;3.43;71.17;99230.52;107674;1310;22433;-54
2023/04/27 03:34:45;;;;;;;29.40;12.40;;;;;;;3.42;71.37;99228.46;107683;1310;22884;-58
2023/04/27 03:37:11;;;;;;;22.20;12.30;;;;;;;3.39;71.58;99228.88;107643;1310;22223;-52
2023/04/27 03:39:37;;;;;;;27.50;12.90;;;;;;;3.35;71.46;99227.77;107669;1310;22231;-57
2023/04/27 03:42:02;;;;;;;34.50;13.20;;;;;;;3.34;71.97;99229.71;107658;1310;22432;-58
2023/04/27 03:44:27;;;;;;;36.30;12.90;;;;;;;3.32;72.18;99232.53;107672;1310;22282;-59
2023/04/27 03:46:53;;;;;;;26.60;12.60;;;;;;;3.32;71.99;99230.98;107670;1310;22467;-57
2023/04/27 03:49:18;;;;;;;32.60;13.10;;;;;;;3.31;72.12;99233.79;107676;1310;22274;-58
2023/04/27 03:51:43;;;;;;;29.80;13.50;;;;;;;3.29;72.33;99240.09;107676;1310;22353;-55
2023/04/27 03:54:09;;;;;;;29.40;13.90;;;;;;;3.29;72.52;99240.23;107657;1310;24225;-58
2023/04/27 03:56:35;;;;;;;27.80;13.60;;;;;;;3.31;71.96;99241.58;107650;1310;22224;-56
2023/04/27 03:59:01;;;;;;;30.50;14.00;;;;;;;3.31;72.34;99245.20;107649;1310;22227;-56
2023/04/27 04:01:26;;;;;;;27.20;14.30;;;;;;;3.33;72.26;99243.09;107634;1310;22482;-58
2023/04/27 04:03:51;;;;;;;25.90;13.70;;;;;;;3.31;72.40;99242.61;107676;1310;22229;-59
2023/04/27 04:06:17;;;;;;;29.00;13.10;;;;;;;3.26;72.65;99244.99;107636;1310;23131;-58
2023/04/27 04:08:42;;;;;;;33.10;14.70;;;;;;;3.22;72.94;99243.54;107666;1310;22245;-57
2023/04/27 04:11:07;;;;;;;30.40;13.60;;;;;;;3.21;73.41;99242.17;107666;1310;22229;-54
2023/04/27 04:13:32;;;;;;;29.40;14.40;;;;;;;3.21;73.61;99240.09;107646;1310;22254;-55
2023/04/27 04:16:03;;;;;;;25.50;12.80;;;;;;;3.24;72.82;99243.47;107655;1310;23382;-56
2023/04/27 04:18:28;;;;;;;26.90;12.80;;;;;;;3.24;73.26;99245.05;107703;1310;22327;-57
2023/04/27 04:20:54;;;;;;;30.00;13.20;;;;;;;3.28;72.81;99248.95;107678;1309;22884;-56
2023/04/27 04:23:19;;;;;;;31.00;13.60;;;;;;;3.30;72.80;99249.23;107723;1310;22236;-57
2023/04/27 04:25:47;;;;;;;37.90;13.40;;;;;;;3.32;72.65;99251.27;107706;1310;22272;-56
2023/04/27 04:28:12;;;;;;;25.50;12.80;;;;;;;3.33;72.75;99252.80;107728;1310;22411;-56
2023/04/27 04:30:38;;;;;;;33.20;14.00;;;;;;;3.34;72.72;99253.30;107948;1298;22489;-57
2023/04/27 04:33:04;;;;;;;31.40;13.10;;;;;;;3.33;72.80;99256.95;108025;1307;22986;-58
2023/04/27 04:35:31;;;;;;;30.10;13.00;;;;;;;3.37;72.68;99258.40;108021;1307;22245;-56
2023/04/27 04:37:57;;;;;;;26.80;12.40;;;;;;;3.44;72.28;99263.75;108027;1307;22419;-58
2023/04/27 04:40:22;;;;;;;26.90;13.50;;;;;;;3.47;72.13;99266.63;108008;1307;22392;-57
2023/04/27 04:42:48;;;;;;;24.40;11.80;;;;;;;3.50;71.79;99272.60;107995;1307;22275;-56
2023/04/27 04:45:14;;;;;;;38.40;13.30;;;;;;;3.54;71.87;99278.22;108008;1307;22489;-58
2023/04/27 04:47:40;;;;;;;26.40;11.90;;;;;;;3.59;71.75;99278.09;108010;1307;22244;-56
2023/04/27 04:50:07;;;;;;;30.50;11.70;;;;;;;3.61;71.61;99279.61;108054;1307;23165;-58
2023/04/27 04:52:33;;;;;;;19.10;11.10;;;;;;;3.65;71.53;99283.14;108004;1307;23069;-56
2023/04/27 04:54:58;;;;;;;24.50;11.80;;;;;;;3.71;71.27;99286.79;108008;1307;23383;-58
2023/04/27 04:57:23;;;;;;;27.80;11.90;;;;;;;3.75;71.07;99284.92;108025;1307;23408;-58
2023/04/27 04:59:48;;;;;;;28.30;11.60;;;;;;;3.77;70.94;99287.31;108007;1307;22400;-56
2023/04/27 05:02:14;;;;;;;27.30;11.90;;;;;;;3.74;70.86;99294.18;108004;1307;22464;-56
2023/04/27 05:04:39;;;;;;;32.80;11.70;;;;;;;3.74;70.61;99293.81;108007;1307;22217;-55
2023/04/27 05:07:05;;;;;;;25.10;11.80;;;;;;;3.71;70.97;99293.72;108026;1307;22319;-55
2023/04/27 05:09:30;;;;;;;32.20;12.70;;;;;;;3.73;71.24;99293.31;108015;1307;22266;-56
2023/04/27 05:11:56;;;;;;;27.90;12.30;;;;;;;3.76;70.90;99291.86;108009;1307;22249;-56
2023/04/27 05:14:21;;;;;;;31.30;12.30;;;;;;;3.76;71.03;99291.33;108010;1307;22545;-58
2023/04/27 05:16:48;;;;;;;25.70;12.40;;;;;;;3.75;71.19;99295.85;108031;1307;24209;-58
2023/04/27 05:19:17;;;;;;;36.80;12.10;;;;;;;3.76;71.85;99293.59;108015;1307;22311;-56
2023/04/27 05:21:43;;;;;;;20.40;11.40;;;;;;;3.80;71.49;99291.40;107780;1307;22257;-57
2023/04/27 05:24:08;;;;;;;22.30;11.50;;;;;;;3.80;71.87;99293.64;107992;1307;22245;-57
2023/04/27 05:26:33;;;;;;;26.60;11.60;;;;;;;3.82;71.75;99291.85;107996;1307;22292;-58
2023/04/27 05:28:59;;;;;;;27.40;12.40;;;;;;;3.86;71.79;99294.17;107995;1307;22476;-55
2023/04/27 05:31:25;;;;;;;25.70;12.30;;;;;;;3.89;71.47;99297.92;108026;1307;22402;-57
2023/04/27 05:33:50;;;;;;;30.20;12.40;;;;;;;3.87;71.93;99300.39;108009;1307;22293;-57
2023/04/27 05:36:15;;;;;;;26.80;12.00;;;;;;;3.93;71.73;99302.14;108014;1307;23220;-57
2023/04/27 05:38:41;;;;;;;29.00;12.50;;;;;;;3.98;71.26;99306.14;108013;1307;22275;-57
2023/04/27 05:41:07;;;;;;;21.10;12.30;;;;;;;3.99;71.74;99310.30;107998;1307;23036;-56
2023/04/27 05:43:33;;;;;;;56.30;12.60;;;;;;;4.06;71.27;99305.42;107991;1307;22486;-57
2023/04/27 05:45:59;;;;;;;30.60;12.00;;;;;;;4.10;71.32;99310.51;107983;1307;22998;-56
2023/04/27 05:48:25;;;;;;;27.50;13.00;;;;;;;4.16;71.82;99311.89;108029;1307;22245;-55
2023/04/27 05:50:58;;;;;;;23.30;11.70;;;;;;;4.24;71.12;99316.70;108023;1307;22237;-56
2023/04/27 05:53:23;;;;;;;24.40;11.70;;;;;;;4.27;71.37;99316.44;108011;1307;22390;-55
2023/04/27 05:55:49;;;;;;;27.40;11.60;;;;;;;4.36;70.95;99320.70;107978;1307;22286;-57
2023/04/27 05:58:15;;;;;;;22.30;11.40;;;;;;;4.42;71.02;99322.75;107986;1307;23123;-56
2023/04/27 06:00:40;;;;;;;29.20;12.00;;;;;;;4.48;70.99;99323.11;107994;1307;22240;-57
2023/04/27 06:03:05;;;;;;;27.80;11.70;;;;;;;4.58;70.69;99327.69;107990;1307;23094;-56
2023/04/27 06:05:33;;;;;;;26.50;12.40;;;;;;;4.67;70.52;99327.58;107995;1307;22304;-54
2023/04/27 06:07:58;;;;;;;26.90;11.80;;;;;;;4.70;70.61;99326.27;108023;1307;22284;-53
2023/04/27 06:10:23;;;;;;;18.40;10.00;;;;;;;4.79;70.29;99319.55;108014;1307;22240;-56
2023/04/27 06:12:49;;;;;;;19.70;9.40;;;;;;;4.85;70.41;99319.38;107990;1307;22529;-56
2023/04/27 06:15:14;;;;;;;20.20;10.00;;;;;;;4.92;70.24;99319.14;107981;1307;22255;-57
2023/04/27 06:17:42;;;;;;;18.60;9.40;;;;;;;4.97;70.18;99318.29;107983;1307;22484;-57
2023/04/27 06:20:08;;;;;;;27.90;9.90;;;;;;;5.08;70.03;99318.46;108017;1307;22227;-57
2023/04/27 06:22:37;;;;;;;20.40;11.60;;;;;;;5.18;70.01;99316.40;108000;1307;22859;-54
2023/04/27 06:25:04;;;;;;;19.70;9.60;;;;;;;5.26;69.63;99315.77;108006;1307;22248;-56
2023/04/27 06:27:30;;;;;;;18.90;9.30;;;;;;;5.35;69.40;99318.77;108037;1307;22375;-59
2023/04/27 06:29:55;;;;;;;18.80;9.30;;;;;;;5.47;69.11;99321.37;108000;1307;22240;-58
2023/04/27 06:32:20;;;;;;;21.90;12.10;;;;;;;5.58;68.51;99325.85;107995;1307;22434;-55
2023/04/27 06:34:46;;;;;;;17.90;10.00;;;;;;;5.62;68.31;99327.11;107999;1307;22293;-56
2023/04/27 06:37:13;;;;;;;16.50;8.20;;;;;;;5.75;68.17;99327.35;108007;1307;22229;-56
2023/04/27 06:39:39;;;;;;;;;;;;;;;5.93;67.77;99325.35;108023;1307;23415;-57
2023/04/27 06:42:04;;;;;;;13.20;6.70;;;;;;;6.14;67.19;99326.69;107981;1307;22493;-57
2023/04/27 06:44:37;;;;;;;45.60;18.10;;;;;;;6.32;66.32;99326.92;108009;1307;22257;-55
2023/04/27 06:47:03;;;;;;;35.10;13.40;;;;;;;6.39;65.79;99324.71;107407;1307;22248;-56
2023/04/27 06:49:28;;;;;;;25.30;10.20;;;;;;;6.46;65.96;99324.63;108007;1307;22317;-56
2023/04/27 06:51:54;;;;;;;16.30;7.90;;;;;;;6.59;65.88;99320.65;107981;1307;22242;-56
2023/04/27 06:54:20;;;;;;;16.00;8.80;;;;;;;6.67;65.45;99321.58;107997;1307;22447;-57
2023/04/27 06:56:45;;;;;;;14.70;7.40;;;;;;;6.76;65.46;99318.42;108023;1307;22819;-57
2023/04/27 06:59:11;;;;;;;22.90;11.30;;;;;;;6.91;64.96;99324.84;107982;1307;22254;-57
2023/04/27 07:01:36;;;;;;;23.30;8.60;;;;;;;7.02;64.79;99324.38;107983;1307;22339;-54
2023/04/27 07:04:05;;;;;;;17.00;7.50;;;;;;;7.15;64.55;99326.65;107977;1307;22256;-58
2023/04/27 07:06:31;;;;;;;13.20;6.70;;;;;;;7.23;64.55;99322.30;108010;1307;22410;-55
2023/04/27 07:08:57;;;;;;;20.40;7.70;;;;;;;7.29;63.81;99328.32;107993;1307;22615;-57
2023/04/27 07:11:23;;;;;;;14.00;6.40;;;;;;;7.37;63.09;99330.29;107992;1307;22237;-60
2023/04/27 07:13:48;;;;;;;11.60;6.60;;;;;;;7.42;62.81;99331.11;107510;1298;22483;-58
2023/04/27 07:16:15;;;;;;;8.20;6.30;;;;;;;7.42;62.24;99334.59;108005;1307;22766;-58
2023/04/27 07:18:40;;;;;;;15.40;6.80;;;;;;;7.52;62.43;99336.99;107990;1307;23449;-59
2023/04/27 07:21:06;;;;;;;14.30;7.20;;;;;;;7.62;62.72;99339.67;107972;1307;22950;-55
2023/04/27 07:23:34;;;;;;;13.30;7.40;;;;;;;7.68;62.00;99346.07;107977;1307;23170;-57
2023/04/27 07:25:59;;;;;;;12.80;6.90;;;;;;;7.67;62.11;99343.48;108012;1307;22294;-57
2023/04/27 07:28:27;;;;;;;17.30;7.70;;;;;;;7.77;62.08;99347.64;107988;1307;22248;-58
2023/04/27 07:30:52;;;;;;;15.80;7.50;;;;;;;7.87;61.89;99347.71;107981;1307;22241;-57
2023/04/27 07:33:17;;;;;;;15.40;6.70;;;;;;;8.01;61.92;99349.17;107970;1307;23021;-55
2023/04/27 07:35:43;;;;;;;12.80;6.90;;;;;;;8.16;61.24;99350.46;107963;1307;22222;-57
2023/04/27 07:38:08;;;;;;;12.60;6.60;;;;;;;8.29;60.84;99348.29;107998;1307;22463;-57
2023/04/27 07:40:33;;;;;;;11.80;7.00;;;;;;;8.40;60.80;99347.27;107961;1307;23026;-57
2023/04/27 07:42:59;;;;;;;11.90;6.50;;;;;;;8.48;60.88;99349.77;108005;1307;23002;-56
2023/04/27 07:45:30;;;;;;;11.70;5.80;;;;;;;8.52;60.19;99351.66;107985;1307;22503;-56
2023/04/27 07:47:59;;;;;;;12.70;5.10;;;;;;;8.60;58.97;99349.88;108012;1307;22398;-58
2023/04/27 07:50:28;;;;;;;13.50;4.90;;;;;;;8.67;57.87;99353.26;107976;1307;22838;-58
2023/04/27 07:52:54;;;;;;;10.10;4.00;;;;;;;8.66;56.59;99354.33;107726;1307;22615;-57
2023/04/27 07:55:22;;;;;;;6.60;3.70;;;;;;;8.68;56.00;99357.92;108006;1307;22558;-58
2023/04/27 07:57:48;;;;;;;9.90;4.10;;;;;;;8.77;56.33;99355.91;107991;1307;22195;-56
2023/04/27 08:00:14;;;;;;;11.50;4.30;;;;;;;8.85;55.65;99355.38;108010;1307;22416;-57
2023/04/27 08:02:40;;;;;;;10.70;4.70;;;;;;;8.88;55.65;99347.23;107993;1307;23193;-57
2023/04/27 08:05:06;;;;;;;12.80;4.80;;;;;;;8.93;55.66;99348.91;107733;1307;22336;-55
2023/04/27 08:07:33;;;;;;;11.90;4.90;;;;;;;8.98;56.03;99352.51;107981;1307;22221;-55
2023/04/27 08:09:58;;;;;;;11.60;5.10;;;;;;;9.06;55.97;99351.77;107751;1307;23251;-59
2023/04/27 08:12:23;;;;;;;9.90;4.70;;;;;;;9.13;55.99;99351.06;107983;1307;22257;-57
2023/04/27 08:14:49;;;;;;;9.50;4.50;;;;;;;9.17;56.13;99349.13;107975;1307;22253;-56
2023/04/27 08:17:14;;;;;;;18.60;4.80;;;;;;;9.07;54.58;99350.69;107998;1307;22214;-55
2023/04/27 08:19:40;;;;;;;12.50;4.30;;;;;;;9.20;55.55;99353.02;107964;1306;22460;-56
2023/04/27 08:22:05;;;;;;;9.30;3.40;;;;;;;9.34;54.68;99356.90;108024;1307;22222;-57
2023/04/27 08:24:31;;;;;;;4.80;3.50;;;;;;;9.35;54.23;99358.76;108021;1307;22311;-52
2023/04/27 08:26:56;;;;;;;12.40;4.20;;;;;;;9.27;53.30;99358.10;107821;1307;22464;-56
2023/04/27 08:29:21;;;;;;;7.30;3.80;;;;;;;9.33;54.01;99359.90;108001;1307;22448;-57
2023/04/27 08:31:47;;;;;;;6.10;4.00;;;;;;;9.37;54.05;99357.63;108005;1307;22256;-58
